Time;durP1;ratioP1;P1;durP2;ratioP2;P2;SDS_P1;SDS_P2;PMS_P1;PMS_P2;Temp;Humidity;BMP_temperature;BMP_pressure;BME280_temperature;BME280_humidity;BME280_pressure;Samples;Min_cycle;Max_cycle;Signal;HPM_P1;HPM_P2
2023/08/12 00:00:12;;;;;;;11.30;3.70;;;22.80;99.90;;;;;;5050919;28;20490;-59
2023/08/12 00:02:41;;;;;;;12.20;3.53;;;23.00;99.90;;;;;;5051359;28;20021;-59
2023/08/12 00:05:08;;;;;;;10.25;3.55;;;23.10;99.90;;;;;;5050943;28;20188;-59
2023/08/12 00:07:34;;;;;;;10.60;3.25;;;23.20;99.90;;;;;;5050725;28;20060;-59
2023/08/12 00:10:03;;;;;;;11.50;3.70;;;23.20;99.90;;;;;;5050614;28;20027;-59
2023/08/12 00:12:29;;;;;;;10.82;3.67;;;23.40;99.90;;;;;;5050895;28;20028;-59
2023/08/12 00:14:55;;;;;;;12.57;3.20;;;23.40;99.90;;;;;;5051052;28;20404;-59
2023/08/12 00:17:21;;;;;;;11.68;3.63;;;23.40;99.90;;;;;;5050861;28;20083;-59
2023/08/12 00:19:46;;;;;;;12.23;3.85;;;23.30;99.90;;;;;;5050681;28;20025;-59
2023/08/12 00:22:13;;;;;;;11.40;3.22;;;23.30;99.90;;;;;;5054556;28;20041;-59
2023/08/12 00:24:39;;;;;;;12.73;3.30;;;23.30;99.90;;;;;;5054274;28;20090;-59
2023/08/12 00:27:06;;;;;;;12.65;3.72;;;23.30;99.90;;;;;;5054652;28;20037;-59
2023/08/12 00:29:32;;;;;;;11.35;3.25;;;23.30;99.90;;;;;;5054954;28;20482;-59
2023/08/12 00:31:58;;;;;;;10.68;3.58;;;23.00;99.90;;;;;;5054599;28;20021;-59
2023/08/12 00:34:23;;;;;;;15.05;3.53;;;22.80;99.90;;;;;;5054562;28;20550;-59
2023/08/12 00:36:49;;;;;;;10.23;3.40;;;22.70;99.90;;;;;;5054715;28;20029;-58
2023/08/12 00:39:15;;;;;;;13.20;3.40;;;22.50;99.90;;;;;;5054206;28;20102;-59
2023/08/12 00:41:41;;;;;;;14.75;3.90;;;22.40;99.90;;;;;;5054299;28;20039;-59
2023/08/12 00:44:07;;;;;;;15.45;3.90;;;22.30;99.90;;;;;;5054814;28;20017;-59
2023/08/12 00:46:33;;;;;;;10.77;3.40;;;22.20;99.90;;;;;;5054237;28;20029;-59
2023/08/12 00:48:59;;;;;;;14.80;4.20;;;22.30;99.90;;;;;;5054590;28;20486;-59
2023/08/12 00:51:25;;;;;;;10.65;3.90;;;22.20;99.90;;;;;;5053783;28;20040;-59
2023/08/12 00:53:52;;;;;;;11.13;3.72;;;22.20;99.90;;;;;;5054283;28;20082;-59
2023/08/12 00:56:18;;;;;;;15.10;4.43;;;22.10;99.90;;;;;;5054315;28;20521;-58
2023/08/12 00:58:45;;;;;;;12.93;4.00;;;22.10;99.90;;;;;;5053916;28;20032;-59
2023/08/12 01:01:11;;;;;;;12.48;4.65;;;22.10;99.90;;;;;;5054225;28;20118;-59
2023/08/12 01:03:37;;;;;;;14.98;4.90;;;22.00;99.90;;;;;;5054118;28;20167;-59
2023/08/12 01:06:03;;;;;;;13.15;4.63;;;22.00;99.90;;;;;;5053844;28;20100;-59
2023/08/12 01:08:31;;;;;;;11.65;3.90;;;22.00;99.90;;;;;;5053596;28;20436;-59
2023/08/12 01:11:23;;;;;;;14.35;4.68;;;21.90;99.90;;;;;;5053815;28;20021;-59
2023/08/12 01:14:08;;;;;;;11.25;4.10;;;22.10;99.90;;;;;;5050673;28;20118;-59
2023/08/12 01:16:40;;;;;;;14.65;4.47;;;22.30;99.90;;;;;;5054297;28;20516;-59
2023/08/12 01:19:09;;;;;;;11.73;4.18;;;22.40;99.90;;;;;;5053905;28;20036;-58
2023/08/12 01:21:40;;;;;;;14.20;4.15;;;22.40;99.90;;;;;;5053367;28;20171;-59
2023/08/12 01:24:07;;;;;;;9.85;4.03;;;22.40;99.90;;;;;;5053423;28;20525;-59
2023/08/12 01:26:32;;;;;;;13.63;4.18;;;22.40;99.90;;;;;;5053591;28;20029;-60
2023/08/12 01:28:58;;;;;;;13.10;4.20;;;22.50;99.90;;;;;;5053448;28;20117;-59
2023/08/12 01:31:43;;;;;;;11.98;3.72;;;22.50;99.90;;;;;;5052863;28;20029;-59
2023/08/12 01:34:22;;;;;;;11.15;4.32;;;22.40;99.90;;;;;;5053827;28;20103;-59
2023/08/12 01:36:54;;;;;;;11.10;4.22;;;22.40;99.90;;;;;;5053302;28;20402;-59
2023/08/12 01:39:23;;;;;;;9.65;4.10;;;22.40;99.90;;;;;;5053789;28;20029;-58
2023/08/12 01:41:50;;;;;;;9.98;4.18;;;22.40;99.90;;;;;;5053261;28;20036;-59
2023/08/12 01:44:16;;;;;;;11.32;4.38;;;22.30;99.90;;;;;;5053237;28;20073;-60
2023/08/12 01:46:44;;;;;;;14.73;4.90;;;22.30;99.90;;;;;;5053060;28;20025;-59
2023/08/12 01:49:09;;;;;;;12.18;4.40;;;22.10;99.90;;;;;;5053113;28;20025;-60
2023/08/12 01:51:35;;;;;;;13.35;5.00;;;21.80;99.90;;;;;;5053217;28;20041;-59
2023/08/12 01:54:01;;;;;;;12.32;4.80;;;21.70;99.90;;;;;;5053047;28;20052;-59
2023/08/12 01:56:26;;;;;;;15.23;5.20;;;21.60;99.90;;;;;;5053262;28;20552;-59
2023/08/12 01:58:52;;;;;;;11.90;4.93;;;21.60;99.90;;;;;;5052717;28;20021;-59
2023/08/12 02:01:18;;;;;;;14.38;5.32;;;21.50;99.90;;;;;;5052984;28;20071;-59
2023/08/12 02:03:43;;;;;;;14.60;5.22;;;21.50;99.90;;;;;;5053108;28;20482;-59
2023/08/12 02:06:09;;;;;;;12.07;4.85;;;21.40;99.90;;;;;;5052611;28;20444;-59
2023/08/12 02:08:34;;;;;;;10.82;4.50;;;21.40;99.90;;;;;;5052679;28;20029;-59
2023/08/12 02:11:00;;;;;;;14.30;4.88;;;21.40;99.90;;;;;;5052834;28;20041;-59
2023/08/12 02:13:26;;;;;;;14.20;5.20;;;21.30;99.90;;;;;;5052477;28;20029;-59
2023/08/12 02:15:51;;;;;;;14.50;5.50;;;21.30;99.90;;;;;;5052731;28;20051;-60
2023/08/12 02:18:17;;;;;;;11.85;4.85;;;21.30;99.90;;;;;;5052712;28;20044;-59
2023/08/12 02:20:43;;;;;;;11.35;4.85;;;21.30;99.90;;;;;;5052245;28;20040;-59
2023/08/12 02:23:08;;;;;;;11.63;4.88;;;21.30;99.90;;;;;;5052652;28;20032;-59
2023/08/12 02:25:34;;;;;;;13.70;5.10;;;21.30;99.90;;;;;;5052311;28;20116;-59
2023/08/12 02:28:00;;;;;;;14.48;5.32;;;21.30;99.90;;;;;;5052322;28;20029;-59
2023/08/12 02:30:25;;;;;;;11.80;4.40;;;21.50;99.90;;;;;;5052712;28;20075;-59
2023/08/12 02:32:51;;;;;;;15.20;4.53;;;21.60;99.90;;;;;;5052177;28;20032;-59
2023/08/12 02:35:20;;;;;;;13.55;4.18;;;21.70;99.90;;;;;;5052015;28;20031;-59
2023/08/12 02:37:48;;;;;;;14.95;4.82;;;21.90;99.90;;;;;;5052233;28;20086;-59
2023/08/12 02:40:14;;;;;;;12.32;3.75;;;22.00;99.90;;;;;;5052280;28;20074;-60
2023/08/12 02:42:39;;;;;;;10.82;4.32;;;22.10;99.90;;;;;;5052416;28;20029;-59
2023/08/12 02:45:06;;;;;;;11.20;4.22;;;22.10;99.90;;;;;;5052100;28;20112;-59
2023/08/12 02:47:31;;;;;;;11.57;4.55;;;22.10;99.90;;;;;;5051899;28;20455;-59
2023/08/12 02:49:57;;;;;;;11.30;4.45;;;22.00;99.90;;;;;;5051717;28;20028;-59
2023/08/12 02:52:23;;;;;;;12.93;4.40;;;22.00;99.90;;;;;;5051958;28;20033;-59
2023/08/12 02:54:48;;;;;;;11.43;4.60;;;21.90;99.90;;;;;;5052222;28;20025;-60
2023/08/12 02:57:14;;;;;;;11.15;4.80;;;22.00;99.90;;;;;;5051939;28;20402;-59
2023/08/12 02:59:40;;;;;;;10.68;4.60;;;21.90;99.90;;;;;;5051913;28;20515;-59
2023/08/12 03:02:05;;;;;;;12.65;4.55;;;21.90;99.90;;;;;;5051719;28;20028;-59
2023/08/12 03:04:31;;;;;;;9.52;4.30;;;21.80;99.90;;;;;;5051384;28;20025;-59
2023/08/12 03:06:57;;;;;;;7.95;4.30;;;21.70;99.90;;;;;;5051735;28;20090;-59
2023/08/12 03:09:22;;;;;;;9.88;4.85;;;21.60;99.90;;;;;;5051581;28;20025;-59
2023/08/12 03:11:48;;;;;;;12.43;5.03;;;21.40;99.90;;;;;;5051963;28;20021;-59
2023/08/12 03:14:14;;;;;;;14.27;5.43;;;21.30;99.90;;;;;;5051414;28;20041;-59
2023/08/12 03:16:40;;;;;;;13.88;5.22;;;21.20;99.90;;;;;;5051414;28;20029;-59
2023/08/12 03:19:05;;;;;;;14.18;5.78;;;21.10;99.90;;;;;;5051078;28;20041;-59
2023/08/12 03:21:31;;;;;;;12.43;5.25;;;21.00;99.90;;;;;;5051781;28;20052;-58
2023/08/12 03:23:57;;;;;;;13.13;5.72;;;21.00;99.90;;;;;;5051676;28;20029;-59
2023/08/12 03:26:22;;;;;;;14.77;5.70;;;20.90;99.90;;;;;;5051308;28;20525;-59
2023/08/12 03:28:48;;;;;;;12.48;4.85;;;20.90;99.90;;;;;;5049915;28;20048;-59
2023/08/12 03:31:14;;;;;;;11.07;5.20;;;20.90;99.90;;;;;;5051635;28;20044;-59
2023/08/12 03:33:39;;;;;;;10.52;5.32;;;20.90;99.90;;;;;;5050885;28;20037;-59
2023/08/12 03:36:06;;;;;;;13.52;5.15;;;20.80;99.90;;;;;;5051306;28;20025;-59
2023/08/12 03:38:31;;;;;;;12.60;5.30;;;20.70;99.90;;;;;;5051642;28;20032;-59
2023/08/12 03:40:57;;;;;;;11.73;5.30;;;20.70;99.90;;;;;;5051118;28;20025;-59
2023/08/12 03:43:23;;;;;;;13.27;5.85;;;20.70;99.90;;;;;;5051168;28;20032;-59
2023/08/12 03:45:48;;;;;;;13.18;5.85;;;20.60;99.90;;;;;;5051055;28;20466;-59
2023/08/12 03:48:14;;;;;;;10.82;5.50;;;20.60;99.90;;;;;;5050613;28;20048;-59
2023/08/12 03:50:42;;;;;;;13.00;5.57;;;20.80;99.90;;;;;;5051502;28;20032;-59
2023/08/12 03:53:08;;;;;;;10.80;5.10;;;21.00;99.90;;;;;;5051210;28;20054;-59
2023/08/12 03:55:34;;;;;;;11.50;5.47;;;21.20;99.90;;;;;;5054249;28;20029;-59
2023/08/12 03:58:00;;;;;;;13.27;5.65;;;21.30;99.90;;;;;;5057614;28;20170;-59
2023/08/12 04:00:26;;;;;;;11.52;5.03;;;21.20;99.90;;;;;;5057889;28;20032;-59
2023/08/12 04:02:52;;;;;;;11.75;4.95;;;21.30;99.90;;;;;;5057515;28;20031;-59
2023/08/12 04:05:18;;;;;;;10.95;5.43;;;21.40;99.90;;;;;;5057265;28;20028;-60
2023/08/12 04:07:43;;;;;;;9.27;4.80;;;21.30;99.90;;;;;;5057814;28;20040;-59
2023/08/12 04:10:10;;;;;;;11.48;5.00;;;21.40;99.90;;;;;;5057511;28;20020;-59
2023/08/12 04:12:35;;;;;;;9.05;4.63;;;21.30;99.90;;;;;;5057357;28;20043;-58
2023/08/12 04:15:04;;;;;;;11.55;4.78;;;21.30;99.90;;;;;;5057785;28;20107;-59
2023/08/12 04:17:30;;;;;;;13.00;5.18;;;21.40;99.90;;;;;;5057004;28;20033;-59
2023/08/12 04:19:56;;;;;;;11.68;5.28;;;21.40;99.90;;;;;;5057571;28;20025;-59
2023/08/12 04:22:21;;;;;;;10.50;4.53;;;21.30;99.90;;;;;;5057677;28;20032;-59
2023/08/12 04:24:47;;;;;;;8.25;4.32;;;21.10;99.90;;;;;;5057225;28;20049;-59
2023/08/12 04:27:13;;;;;;;12.73;4.93;;;21.00;99.90;;;;;;5057602;28;20044;-59
2023/08/12 04:29:38;;;;;;;11.10;4.90;;;20.80;99.90;;;;;;5057229;28;20104;-59
2023/08/12 04:32:04;;;;;;;11.23;4.88;;;20.70;99.90;;;;;;5057251;28;20036;-59
2023/08/12 04:34:30;;;;;;;13.82;5.35;;;20.60;99.90;;;;;;5057389;28;20021;-59
2023/08/12 04:36:55;;;;;;;11.10;5.38;;;20.50;99.90;;;;;;5057270;28;20055;-59
2023/08/12 04:39:22;;;;;;;12.05;4.97;;;20.50;99.90;;;;;;5057367;28;20108;-59
2023/08/12 04:41:48;;;;;;;11.65;5.25;;;20.40;99.90;;;;;;5057309;28;20440;-59
2023/08/12 04:44:14;;;;;;;12.90;5.78;;;20.40;99.90;;;;;;5056853;28;20032;-60
2023/08/12 04:46:39;;;;;;;9.35;4.72;;;20.40;99.90;;;;;;5057228;28;20025;-59
2023/08/12 04:49:05;;;;;;;10.32;4.75;;;20.40;99.90;;;;;;5057763;28;20028;-59
2023/08/12 04:51:31;;;;;;;12.98;5.10;;;20.30;99.90;;;;;;5057275;28;20044;-59
2023/08/12 04:53:57;;;;;;;10.85;5.30;;;20.30;99.90;;;;;;5057356;28;20040;-59
2023/08/12 04:56:24;;;;;;;13.30;5.38;;;20.40;99.90;;;;;;5057019;28;20037;-59
2023/08/12 04:58:49;;;;;;;15.48;6.00;;;20.30;99.90;;;;;;5056787;28;20036;-59
2023/08/12 05:01:15;;;;;;;18.33;5.78;;;20.40;99.90;;;;;;5057183;28;20037;-59
2023/08/12 05:03:41;;;;;;;15.23;5.55;;;20.40;99.90;;;;;;5057511;28;20028;-59
2023/08/12 05:06:06;;;;;;;10.38;5.45;;;20.60;99.90;;;;;;5056756;28;20032;-58
2023/08/12 05:08:32;;;;;;;13.38;4.95;;;20.70;99.90;;;;;;5053854;28;20029;-59
2023/08/12 05:10:58;;;;;;;12.07;4.93;;;21.00;99.90;;;;;;5053803;28;20051;-59
2023/08/12 05:13:24;;;;;;;14.75;5.25;;;21.00;99.90;;;;;;5053558;28;20032;-59
2023/08/12 05:15:49;;;;;;;12.02;5.30;;;21.10;99.90;;;;;;5053686;28;20056;-59
2023/08/12 05:18:15;;;;;;;12.43;5.20;;;21.10;99.90;;;;;;5053700;28;20037;-59
2023/08/12 05:20:42;;;;;;;14.93;5.47;;;21.20;99.90;;;;;;5052351;28;20036;-59
2023/08/12 05:23:08;;;;;;;16.95;5.15;;;21.30;99.90;;;;;;5054146;28;20029;-59
2023/08/12 05:25:34;;;;;;;11.32;4.97;;;21.30;99.90;;;;;;5053046;28;20048;-59
2023/08/12 05:28:00;;;;;;;13.80;5.28;;;21.30;99.90;;;;;;5053132;28;20399;-59
2023/08/12 05:30:25;;;;;;;12.43;5.38;;;21.20;99.90;;;;;;5053582;28;20033;-59
2023/08/12 05:32:51;;;;;;;12.95;5.88;;;21.10;99.90;;;;;;5053970;28;20487;-59
2023/08/12 05:35:17;;;;;;;13.43;5.72;;;21.10;99.90;;;;;;5053461;28;20082;-59
2023/08/12 05:37:42;;;;;;;14.95;5.70;;;21.00;99.90;;;;;;5053361;28;20121;-59
2023/08/12 05:40:09;;;;;;;16.58;5.38;;;20.90;99.90;;;;;;5053859;28;20029;-60
2023/08/12 05:42:35;;;;;;;15.57;5.53;;;20.70;99.90;;;;;;5053020;28;20032;-59
2023/08/12 05:45:03;;;;;;;13.88;5.47;;;20.70;99.90;;;;;;5053174;28;20029;-59
2023/08/12 05:47:28;;;;;;;15.38;5.65;;;20.60;99.90;;;;;;5053087;28;20413;-59
2023/08/12 05:49:54;;;;;;;16.88;6.07;;;20.60;99.90;;;;;;5053428;28;20025;-59
2023/08/12 05:52:19;;;;;;;14.10;5.68;;;20.50;99.90;;;;;;5053557;28;20516;-59
2023/08/12 05:54:45;;;;;;;16.25;6.25;;;20.60;99.90;;;;;;5052999;28;20472;-59
2023/08/12 05:57:11;;;;;;;13.20;6.10;;;20.50;99.90;;;;;;5052764;28;20025;-59
2023/08/12 05:59:37;;;;;;;12.15;5.40;;;20.50;99.90;;;;;;5052873;28;20039;-59
2023/08/12 06:02:03;;;;;;;19.02;6.25;;;20.50;99.90;;;;;;5052942;28;20120;-60
2023/08/12 06:04:29;;;;;;;12.95;6.25;;;20.50;99.90;;;;;;5052866;28;20501;-59
2023/08/12 06:06:55;;;;;;;13.45;5.70;;;20.50;99.90;;;;;;5052636;28;20116;-59
2023/08/12 06:09:21;;;;;;;13.50;6.20;;;20.50;99.90;;;;;;5053097;28;20036;-60
2023/08/12 06:11:47;;;;;;;13.52;6.03;;;20.60;99.90;;;;;;5052659;28;20056;-59
2023/08/12 06:14:13;;;;;;;15.90;6.10;;;20.60;99.90;;;;;;5052550;28;20474;-59
2023/08/12 06:16:38;;;;;;;15.35;5.78;;;20.70;99.90;;;;;;5052810;28;20389;-60
2023/08/12 06:19:04;;;;;;;13.45;6.00;;;20.80;99.90;;;;;;5052420;28;20043;-59
2023/08/12 06:21:30;;;;;;;16.83;6.35;;;20.80;99.90;;;;;;5052466;28;20024;-59
2023/08/12 06:23:56;;;;;;;15.95;6.10;;;21.10;99.90;;;;;;5052685;28;20076;-59
2023/08/12 06:26:21;;;;;;;13.15;6.05;;;21.30;99.90;;;;;;5051896;28;20045;-59
2023/08/12 06:28:47;;;;;;;13.60;5.30;;;21.40;99.90;;;;;;5052782;28;20116;-59
2023/08/12 06:31:13;;;;;;;13.85;5.63;;;21.50;99.90;;;;;;5052519;28;20453;-60
2023/08/12 06:33:38;;;;;;;14.23;5.97;;;21.60;99.90;;;;;;5052501;28;20029;-59
2023/08/12 06:36:04;;;;;;;14.43;5.53;;;21.60;99.90;;;;;;5052303;28;20028;-59
2023/08/12 06:38:30;;;;;;;14.48;6.05;;;21.70;99.90;;;;;;5052083;28;20037;-59
2023/08/12 06:40:56;;;;;;;13.98;6.10;;;21.80;99.90;;;;;;5052229;28;20025;-59
2023/08/12 06:43:21;;;;;;;14.15;6.32;;;21.90;99.90;;;;;;5052288;28;20025;-59
2023/08/12 06:45:47;;;;;;;13.02;5.45;;;22.00;99.90;;;;;;5050864;28;20615;-59
2023/08/12 06:48:13;;;;;;;15.63;5.78;;;22.00;99.90;;;;;;5052010;28;20044;-59
2023/08/12 06:50:38;;;;;;;15.52;5.70;;;22.10;99.90;;;;;;5052049;28;20020;-59
2023/08/12 06:53:04;;;;;;;12.07;5.10;;;22.20;99.90;;;;;;5050551;28;20068;-59
2023/08/12 06:55:30;;;;;;;15.85;5.55;;;22.20;99.90;;;;;;5050564;28;20025;-59
2023/08/12 06:57:55;;;;;;;15.18;5.75;;;22.20;99.90;;;;;;5051832;28;20032;-60
2023/08/12 07:00:21;;;;;;;14.10;5.55;;;22.10;99.90;;;;;;5051802;28;20032;-59
2023/08/12 07:02:47;;;;;;;14.30;6.32;;;22.00;99.90;;;;;;5050533;28;20402;-58
2023/08/12 07:05:13;;;;;;;12.48;5.75;;;22.00;99.90;;;;;;5052220;28;20498;-59
2023/08/12 07:07:38;;;;;;;15.73;6.20;;;22.00;99.90;;;;;;5051551;28;20120;-62
2023/08/12 07:10:06;;;;;;;14.77;5.57;;;22.00;99.90;;;;;;5051456;28;20037;-62
2023/08/12 07:12:32;;;;;;;18.77;5.95;;;22.00;99.90;;;;;;5051712;28;20027;-59
2023/08/12 07:14:58;;;;;;;11.65;5.28;;;22.10;99.90;;;;;;5051459;28;20041;-59
2023/08/12 07:17:24;;;;;;;10.27;5.68;;;22.20;99.90;;;;;;5051521;28;20506;-60
2023/08/12 07:19:50;;;;;;;16.00;6.10;;;22.20;99.90;;;;;;5051946;28;20087;-60
2023/08/12 07:22:19;;;;;;;14.10;6.10;;;22.40;99.90;;;;;;5051479;28;20151;-57
2023/08/12 07:24:45;;;;;;;18.25;6.10;;;22.40;99.90;;;;;;5051160;28;20073;-59
2023/08/12 07:27:10;;;;;;;15.80;6.63;;;22.50;99.90;;;;;;5051316;28;20092;-59
2023/08/12 07:29:36;;;;;;;13.88;5.60;;;22.50;99.90;;;;;;5050619;28;20025;-59
2023/08/12 07:32:02;;;;;;;15.23;5.55;;;22.50;99.90;;;;;;5051546;28;20029;-59
2023/08/12 07:34:27;;;;;;;12.07;5.20;;;22.60;99.90;;;;;;5051095;28;20025;-60
2023/08/12 07:36:53;;;;;;;12.80;5.78;;;22.60;99.90;;;;;;5051472;28;20385;-59
2023/08/12 07:39:19;;;;;;;13.10;5.57;;;22.60;99.90;;;;;;5050926;28;20028;-60
2023/08/12 07:41:44;;;;;;;15.15;5.40;;;22.80;99.90;;;;;;5051197;28;20036;-59
2023/08/12 07:44:10;;;;;;;14.10;5.03;;;22.90;99.90;;;;;;5051477;28;20056;-59
2023/08/12 07:46:36;;;;;;;14.52;4.80;;;23.10;99.90;;;;;;5051173;28;20029;-59
2023/08/12 07:49:01;;;;;;;12.23;5.07;;;23.30;99.90;;;;;;5050941;28;20122;-59
2023/08/12 07:51:27;;;;;;;13.65;5.25;;;23.30;99.90;;;;;;5051377;28;20040;-59
2023/08/12 07:53:53;;;;;;;13.50;4.75;;;23.50;99.90;;;;;;5050759;28;20029;-59
2023/08/12 07:56:18;;;;;;;10.88;4.10;;;23.50;99.90;;;;;;5050884;28;20029;-60
2023/08/12 07:58:45;;;;;;;12.85;4.20;;;23.50;99.90;;;;;;5051213;28;20029;-59
2023/08/12 08:01:11;;;;;;;14.63;4.50;;;23.60;99.90;;;;;;5051375;28;20035;-62
2023/08/12 08:03:37;;;;;;;11.25;4.28;;;23.70;99.90;;;;;;5051109;28;20018;-62
2023/08/12 08:06:02;;;;;;;13.68;4.75;;;23.80;99.90;;;;;;5050844;28;20402;-62
2023/08/12 08:08:28;;;;;;;12.20;4.18;;;23.80;99.90;;;;;;5050424;28;20098;-62
2023/08/12 08:10:54;;;;;;;10.95;4.00;;;23.80;99.90;;;;;;5051309;28;20032;-61
2023/08/12 08:13:19;;;;;;;13.40;4.78;;;23.80;99.90;;;;;;5051454;28;20486;-62
2023/08/12 08:15:45;;;;;;;12.00;4.78;;;23.90;99.90;;;;;;5050715;28;20039;-62
2023/08/12 08:18:11;;;;;;;12.07;4.50;;;23.70;99.90;;;;;;5050786;28;20029;-62
2023/08/12 08:20:37;;;;;;;11.13;4.55;;;23.60;99.90;;;;;;5050743;28;20079;-62
2023/08/12 08:23:03;;;;;;;12.05;4.70;;;23.60;99.90;;;;;;5050537;28;20033;-59
2023/08/12 08:25:28;;;;;;;10.45;4.20;;;23.50;99.90;;;;;;5050803;28;20049;-62
2023/08/12 08:27:54;;;;;;;13.68;4.85;;;23.50;99.90;;;;;;5049876;28;20048;-61
2023/08/12 08:30:20;;;;;;;12.43;5.00;;;23.40;99.90;;;;;;5050802;28;20017;-62
2023/08/12 08:32:46;;;;;;;11.32;4.45;;;23.40;99.90;;;;;;5050777;28;20481;-62
2023/08/12 08:35:12;;;;;;;14.27;4.55;;;23.50;99.90;;;;;;5050679;28;20399;-62
2023/08/12 08:37:38;;;;;;;10.57;4.25;;;23.50;99.90;;;;;;5050704;28;20029;-62
2023/08/12 08:40:04;;;;;;;10.02;4.75;;;23.40;99.90;;;;;;5049323;28;20487;-62
2023/08/12 08:42:31;;;;;;;13.07;5.18;;;23.40;99.90;;;;;;5053447;28;20060;-62
2023/08/12 08:45:01;;;;;;;10.13;4.55;;;23.30;99.90;;;;;;5054452;28;20401;-62
2023/08/12 08:47:27;;;;;;;12.43;4.28;;;23.30;99.90;;;;;;5054642;28;20089;-62
2023/08/12 08:49:57;;;;;;;12.98;5.07;;;23.30;99.90;;;;;;5054046;28;20033;-61
2023/08/12 08:52:25;;;;;;;11.43;4.82;;;23.30;99.90;;;;;;5054260;28;20048;-62
2023/08/12 08:54:51;;;;;;;10.20;4.28;;;23.30;99.90;;;;;;5054266;28;20021;-61
2023/08/12 08:57:19;;;;;;;13.90;4.82;;;23.30;99.90;;;;;;5054449;28;20032;-59
2023/08/12 08:59:45;;;;;;;12.15;4.90;;;23.30;99.90;;;;;;5054568;28;20099;-59
2023/08/12 09:02:17;;;;;;;14.50;5.07;;;23.50;99.90;;;;;;5054168;28;20028;-59
2023/08/12 09:04:45;;;;;;;14.27;5.32;;;23.60;99.90;;;;;;5053962;28;20032;-59
2023/08/12 09:07:12;;;;;;;17.48;4.95;;;23.70;99.90;;;;;;5053766;28;20025;-59
2023/08/12 09:09:44;;;;;;;12.70;4.82;;;23.90;99.90;;;;;;5053934;28;20075;-59
2023/08/12 09:12:13;;;;;;;10.65;4.47;;;23.90;99.90;;;;;;5054242;28;20035;-59
2023/08/12 09:14:39;;;;;;;12.18;4.88;;;24.00;99.90;;;;;;5053675;28;20064;-59
2023/08/12 09:17:05;;;;;;;15.80;5.38;;;24.10;99.90;;;;;;5053944;28;20067;-59
2023/08/12 09:19:30;;;;;;;13.25;4.95;;;24.20;99.90;;;;;;5053690;28;20398;-59
2023/08/12 09:21:56;;;;;;;11.73;4.63;;;24.10;99.90;;;;;;5053514;28;20405;-59
2023/08/12 09:24:26;;;;;;;11.23;4.57;;;24.00;99.90;;;;;;5053546;28;20491;-59
2023/08/12 09:26:53;;;;;;;11.70;4.70;;;24.20;99.90;;;;;;5053570;28;20032;-59
2023/08/12 09:29:22;;;;;;;10.40;4.82;;;24.30;99.90;;;;;;5054056;28;20036;-59
2023/08/12 09:31:47;;;;;;;11.82;5.00;;;24.30;99.90;;;;;;5053597;28;20061;-59
2023/08/12 09:34:13;;;;;;;11.70;5.10;;;24.40;99.90;;;;;;5053222;28;20043;-58
2023/08/12 09:36:38;;;;;;;11.50;4.82;;;24.30;99.90;;;;;;5054021;28;20553;-59
2023/08/12 09:39:10;;;;;;;12.88;5.35;;;24.20;99.90;;;;;;5053421;28;20525;-59
2023/08/12 09:41:38;;;;;;;12.90;4.93;;;24.00;99.90;;;;;;5053476;28;20025;-59
2023/08/12 09:44:04;;;;;;;10.07;4.63;;;24.00;99.90;;;;;;5053450;28;20049;-59
2023/08/12 09:46:33;;;;;;;13.90;5.30;;;24.10;99.90;;;;;;5053447;28;20094;-59
2023/08/12 09:48:59;;;;;;;12.02;5.15;;;24.00;99.90;;;;;;5052832;28;20440;-59
2023/08/12 09:51:25;;;;;;;10.45;5.03;;;23.90;99.90;;;;;;5053238;28;20029;-59
2023/08/12 09:53:52;;;;;;;10.02;5.43;;;23.90;99.90;;;;;;5052525;28;20368;-59
2023/08/12 09:56:22;;;;;;;14.02;5.25;;;23.90;99.90;;;;;;5053151;28;20079;-59
2023/08/12 09:58:49;;;;;;;10.45;5.00;;;24.00;99.90;;;;;;5052975;28;20485;-59
2023/08/12 10:01:20;;;;;;;11.48;4.75;;;24.10;99.90;;;;;;5053042;28;20021;-59
2023/08/12 10:03:51;;;;;;;9.98;4.85;;;24.20;99.90;;;;;;5053042;28;20021;-59
2023/08/12 10:06:17;;;;;;;10.95;4.70;;;24.20;99.90;;;;;;5052945;28;20118;-59
2023/08/12 10:08:45;;;;;;;12.60;5.32;;;24.40;99.90;;;;;;5052782;28;20040;-59
2023/08/12 10:11:11;;;;;;;11.65;4.53;;;24.40;99.90;;;;;;5052910;28;20116;-59
2023/08/12 10:13:38;;;;;;;11.52;5.00;;;24.50;99.90;;;;;;5052658;28;20041;-59
2023/08/12 10:16:04;;;;;;;9.23;4.70;;;24.60;99.90;;;;;;5053015;28;20426;-59
2023/08/12 10:18:31;;;;;;;10.15;4.68;;;24.60;99.90;;;;;;5051918;28;20032;-59
2023/08/12 10:21:00;;;;;;;9.50;4.88;;;24.70;99.90;;;;;;5052961;28;20017;-59
2023/08/12 10:23:25;;;;;;;11.13;4.88;;;24.80;99.90;;;;;;5052693;28;20036;-59
2023/08/12 10:25:54;;;;;;;9.52;4.70;;;24.80;99.90;;;;;;5052396;28;20041;-59
2023/08/12 10:28:20;;;;;;;11.95;4.80;;;24.90;99.90;;;;;;5052497;28;20033;-59
2023/08/12 10:30:46;;;;;;;9.38;4.95;;;24.90;99.90;;;;;;5052692;28;20104;-59
2023/08/12 10:33:16;;;;;;;13.32;5.38;;;25.10;99.90;;;;;;5052105;28;20108;-59
2023/08/12 10:35:49;;;;;;;10.68;4.43;;;25.10;99.90;;;;;;5052363;28;20099;-59
2023/08/12 10:38:22;;;;;;;8.43;4.60;;;25.20;99.90;;;;;;5052344;28;20051;-59
2023/08/12 10:40:48;;;;;;;11.30;5.05;;;25.30;99.90;;;;;;5052376;28;20575;-59
2023/08/12 10:43:14;;;;;;;11.02;4.88;;;25.10;99.90;;;;;;5051287;28;20371;-59
2023/08/12 10:45:52;;;;;;;8.55;4.38;;;25.20;99.90;;;;;;5050716;28;20032;-59
2023/08/12 10:48:27;;;;;;;8.73;4.40;;;25.30;99.90;;;;;;5051954;28;20049;-59
2023/08/12 10:50:59;;;;;;;10.02;5.47;;;25.30;99.90;;;;;;5052150;28;20029;-59
2023/08/12 10:53:32;;;;;;;11.25;4.95;;;25.20;99.90;;;;;;5051934;28;20116;-59
2023/08/12 10:56:11;;;;;;;11.05;4.80;;;25.20;99.90;;;;;;5052022;28;20025;-59
2023/08/12 10:58:47;;;;;;;11.43;5.00;;;25.30;99.90;;;;;;5052087;28;20116;-59
2023/08/12 11:01:19;;;;;;;11.52;4.47;;;25.00;99.90;;;;;;5050303;28;20033;-58
2023/08/12 11:03:47;;;;;;;8.23;4.57;;;24.90;99.90;;;;;;5052141;28;20023;-59
2023/08/12 11:06:13;;;;;;;9.23;4.05;;;24.80;99.90;;;;;;5051653;28;20563;-59
2023/08/12 11:08:52;;;;;;;10.35;4.60;;;24.70;99.90;;;;;;5052126;28;20029;-59
2023/08/12 11:11:26;;;;;;;7.72;4.13;;;24.70;99.90;;;;;;5051452;28;20025;-59
2023/08/12 11:13:57;;;;;;;8.48;4.18;;;24.70;99.90;;;;;;5051506;28;20024;-59
2023/08/12 11:16:36;;;;;;;11.82;4.63;;;24.70;99.90;;;;;;5050071;28;20029;-59
2023/08/12 11:19:03;;;;;;;9.20;4.78;;;24.80;99.90;;;;;;5051505;28;20025;-59
2023/08/12 11:21:29;;;;;;;9.35;4.53;;;24.80;99.90;;;;;;5051917;28;20559;-59
2023/08/12 11:23:55;;;;;;;9.55;4.80;;;24.80;99.90;;;;;;5050357;28;20031;-59
2023/08/12 11:26:23;;;;;;;10.80;5.30;;;24.80;99.90;;;;;;5051285;28;20053;-60
2023/08/12 11:28:49;;;;;;;9.40;4.60;;;24.80;99.90;;;;;;5051292;28;20040;-59
2023/08/12 11:31:16;;;;;;;8.27;4.28;;;24.70;99.90;;;;;;5051136;28;20383;-59
2023/08/12 11:33:41;;;;;;;7.50;3.92;;;24.60;99.90;;;;;;5051163;28;20032;-59
2023/08/12 11:36:07;;;;;;;7.15;3.47;;;24.60;99.90;;;;;;5051663;28;20092;-59
2023/08/12 11:38:33;;;;;;;5.10;3.30;;;24.50;99.90;;;;;;5050981;28;20571;-58
2023/08/12 11:41:02;;;;;;;6.65;3.58;;;24.60;99.90;;;;;;5051624;28;20021;-59
2023/08/12 11:43:30;;;;;;;7.40;3.70;;;24.80;99.90;;;;;;5051118;28;20090;-59
2023/08/12 11:45:56;;;;;;;6.80;3.40;;;24.90;99.90;;;;;;5050945;28;20025;-59
2023/08/12 11:48:23;;;;;;;6.18;3.42;;;25.10;99.90;;;;;;5051105;28;20204;-59
2023/08/12 11:50:50;;;;;;;5.70;3.00;;;25.20;99.90;;;;;;5051060;28;20490;-59
2023/08/12 11:53:16;;;;;;;7.70;3.40;;;25.30;99.90;;;;;;5051268;28;20093;-59
2023/08/12 11:55:41;;;;;;;7.13;3.50;;;25.30;99.90;;;;;;5051437;28;20052;-59
2023/08/12 11:58:07;;;;;;;6.97;3.85;;;25.20;99.90;;;;;;5050964;28;20025;-58
2023/08/12 12:00:33;;;;;;;6.88;3.83;;;25.40;99.90;;;;;;5050832;28;20032;-59
2023/08/12 12:02:59;;;;;;;6.13;3.55;;;25.30;99.90;;;;;;5051234;28;20147;-59
2023/08/12 12:05:27;;;;;;;7.85;3.97;;;25.30;99.90;;;;;;5049855;28;20071;-59
2023/08/12 12:07:53;;;;;;;6.25;3.47;;;25.30;99.90;;;;;;5051035;28;20076;-59
2023/08/12 12:10:27;;;;;;;5.90;3.28;;;25.30;99.90;;;;;;5051064;28;20096;-59
2023/08/12 12:12:55;;;;;;;7.47;3.55;;;25.40;99.90;;;;;;5051034;28;20056;-59
2023/08/12 12:15:21;;;;;;;6.15;3.70;;;25.50;99.90;;;;;;5050511;28;20029;-59
2023/08/12 12:17:50;;;;;;;6.43;3.60;;;25.70;99.90;;;;;;5054287;28;20029;-59
2023/08/12 12:20:17;;;;;;;7.38;3.80;;;25.70;99.90;;;;;;5054954;28;20021;-59
2023/08/12 12:22:44;;;;;;;7.55;4.13;;;25.60;99.90;;;;;;5055311;28;20024;-59
2023/08/12 12:25:12;;;;;;;6.13;3.90;;;25.40;99.90;;;;;;5054689;28;20037;-59
2023/08/12 12:27:39;;;;;;;5.15;3.53;;;25.30;99.90;;;;;;5054581;28;20044;-59
2023/08/12 12:30:07;;;;;;;4.97;2.80;;;25.10;99.90;;;;;;5054750;28;20498;-58
2023/08/12 12:32:34;;;;;;;5.10;2.70;;;25.10;99.90;;;;;;5054801;28;20029;-59
2023/08/12 12:34:59;;;;;;;5.63;2.75;;;24.90;99.90;;;;;;5054571;28;20035;-59